sensor_id;sensor_type;location;lat;lon;timestamp;P1;durP1;ratioP1;P2;durP2;ratioP2
18501;SDS011;68437;52.236;5.710;2023-05-02T00:01:04;37.65;;;15.90;;
18501;SDS011;68437;52.236;5.710;2023-05-02T00:03:31;39.97;;;16.73;;
18501;SDS011;68437;52.236;5.710;2023-05-02T00:05:59;38.35;;;16.65;;
18501;SDS011;68437;52.236;5.710;2023-05-02T00:08:26;43.20;;;16.50;;
18501;SDS011;68437;52.236;5.710;2023-05-02T00:10:53;48.90;;;17.48;;
18501;SDS011;68437;52.236;5.710;2023-05-02T00:13:20;43.90;;;16.30;;
18501;SDS011;68437;52.236;5.710;2023-05-02T00:15:47;36.33;;;15.70;;
18501;SDS011;68437;52.236;5.710;2023-05-02T00:18:14;42.13;;;16.98;;
18501;SDS011;68437;52.236;5.710;2023-05-02T00:20:40;39.28;;;16.60;;
18501;SDS011;68437;52.236;5.710;2023-05-02T00:23:09;43.85;;;17.25;;
18501;SDS011;68437;52.236;5.710;2023-05-02T00:25:42;45.35;;;17.25;;
18501;SDS011;68437;52.236;5.710;2023-05-02T00:28:09;45.78;;;18.00;;
18501;SDS011;68437;52.236;5.710;2023-05-02T00:30:40;40.95;;;17.92;;
18501;SDS011;68437;52.236;5.710;2023-05-02T00:33:08;49.10;;;17.88;;
18501;SDS011;68437;52.236;5.710;2023-05-02T00:35:36;43.50;;;18.02;;
18501;SDS011;68437;52.236;5.710;2023-05-02T00:38:03;43.40;;;17.98;;
18501;SDS011;68437;52.236;5.710;2023-05-02T00:40:37;43.25;;;18.20;;
18501;SDS011;68437;52.236;5.710;2023-05-02T00:43:08;44.63;;;17.27;;
18501;SDS011;68437;52.236;5.710;2023-05-02T00:45:34;37.80;;;16.67;;
18501;SDS011;68437;52.236;5.710;2023-05-02T00:48:01;38.47;;;16.25;;
18501;SDS011;68437;52.236;5.710;2023-05-02T00:50:28;35.60;;;15.90;;
18501;SDS011;68437;52.236;5.710;2023-05-02T00:52:58;37.53;;;16.73;;
18501;SDS011;68437;52.236;5.710;2023-05-02T00:55:25;43.25;;;17.65;;
18501;SDS011;68437;52.236;5.710;2023-05-02T00:57:54;39.95;;;17.27;;
18501;SDS011;68437;52.236;5.710;2023-05-02T01:00:22;42.53;;;16.25;;
18501;SDS011;68437;52.236;5.710;2023-05-02T01:02:57;38.88;;;16.23;;
18501;SDS011;68437;52.236;5.710;2023-05-02T01:05:33;33.95;;;15.35;;
18501;SDS011;68437;52.236;5.710;2023-05-02T01:08:09;42.47;;;15.90;;
18501;SDS011;68437;52.236;5.710;2023-05-02T01:10:46;39.08;;;14.23;;
18501;SDS011;68437;52.236;5.710;2023-05-02T01:13:19;32.22;;;12.80;;
18501;SDS011;68437;52.236;5.710;2023-05-02T01:15:48;26.60;;;11.05;;
18501;SDS011;68437;52.236;5.710;2023-05-02T01:18:17;30.00;;;11.73;;
18501;SDS011;68437;52.236;5.710;2023-05-02T01:20:49;25.33;;;10.77;;
18501;SDS011;68437;52.236;5.710;2023-05-02T01:23:21;25.67;;;9.65;;
18501;SDS011;68437;52.236;5.710;2023-05-02T01:25:59;21.38;;;8.45;;
18501;SDS011;68437;52.236;5.710;2023-05-02T01:31:13;24.00;;;8.90;;
18501;SDS011;68437;52.236;5.710;2023-05-02T01:33:41;30.08;;;8.63;;
18501;SDS011;68437;52.236;5.710;2023-05-02T01:36:11;24.13;;;7.95;;
18501;SDS011;68437;52.236;5.710;2023-05-02T01:38:39;21.85;;;7.75;;
18501;SDS011;68437;52.236;5.710;2023-05-02T01:41:08;25.48;;;7.00;;
18501;SDS011;68437;52.236;5.710;2023-05-02T01:43:37;24.02;;;7.32;;
18501;SDS011;68437;52.236;5.710;2023-05-02T01:46:07;21.92;;;6.50;;
18501;SDS011;68437;52.236;5.710;2023-05-02T01:48:36;18.58;;;6.47;;
18501;SDS011;68437;52.236;5.710;2023-05-02T01:51:03;15.60;;;5.05;;
18501;SDS011;68437;52.236;5.710;2023-05-02T01:53:32;24.00;;;4.95;;
18501;SDS011;68437;52.236;5.710;2023-05-02T01:56:00;17.45;;;4.57;;
18501;SDS011;68437;52.236;5.710;2023-05-02T01:58:28;16.63;;;4.57;;
18501;SDS011;68437;52.236;5.710;2023-05-02T02:00:57;24.95;;;5.00;;
18501;SDS011;68437;52.236;5.710;2023-05-02T02:03:27;20.08;;;4.43;;
18501;SDS011;68437;52.236;5.710;2023-05-02T02:05:56;18.42;;;4.68;;
18501;SDS011;68437;52.236;5.710;2023-05-02T02:08:24;16.50;;;4.47;;
18501;SDS011;68437;52.236;5.710;2023-05-02T02:10:53;14.10;;;4.47;;
18501;SDS011;68437;52.236;5.710;2023-05-02T02:13:25;17.40;;;4.40;;
18501;SDS011;68437;52.236;5.710;2023-05-02T02:15:56;18.17;;;4.47;;
18501;SDS011;68437;52.236;5.710;2023-05-02T02:18:27;19.33;;;4.55;;
18501;SDS011;68437;52.236;5.710;2023-05-02T02:20:57;16.33;;;4.30;;
18501;SDS011;68437;52.236;5.710;2023-05-02T02:23:25;13.85;;;4.13;;
18501;SDS011;68437;52.236;5.710;2023-05-02T02:25:53;15.40;;;4.40;;
18501;SDS011;68437;52.236;5.710;2023-05-02T02:28:21;11.30;;;4.32;;
18501;SDS011;68437;52.236;5.710;2023-05-02T02:30:48;18.80;;;4.03;;
18501;SDS011;68437;52.236;5.710;2023-05-02T02:33:15;13.45;;;3.88;;
18501;SDS011;68437;52.236;5.710;2023-05-02T02:35:46;18.83;;;4.25;;
18501;SDS011;68437;52.236;5.710;2023-05-02T02:38:18;11.05;;;3.75;;
18501;SDS011;68437;52.236;5.710;2023-05-02T02:40:53;11.95;;;4.00;;
18501;SDS011;68437;52.236;5.710;2023-05-02T02:43:23;13.65;;;3.58;;
18501;SDS011;68437;52.236;5.710;2023-05-02T02:45:54;16.25;;;3.63;;
18501;SDS011;68437;52.236;5.710;2023-05-02T02:48:31;13.30;;;2.85;;
18501;SDS011;68437;52.236;5.710;2023-05-02T02:51:06;11.73;;;2.88;;
18501;SDS011;68437;52.236;5.710;2023-05-02T02:53:39;10.63;;;2.63;;
18501;SDS011;68437;52.236;5.710;2023-05-02T02:56:19;11.38;;;2.97;;
18501;SDS011;68437;52.236;5.710;2023-05-02T02:58:53;12.25;;;2.92;;
18501;SDS011;68437;52.236;5.710;2023-05-02T03:01:23;11.32;;;2.50;;
18501;SDS011;68437;52.236;5.710;2023-05-02T03:03:52;10.27;;;3.03;;
18501;SDS011;68437;52.236;5.710;2023-05-02T03:06:23;8.48;;;2.65;;
18501;SDS011;68437;52.236;5.710;2023-05-02T03:08:51;8.98;;;2.70;;
18501;SDS011;68437;52.236;5.710;2023-05-02T03:11:18;16.00;;;3.47;;
18501;SDS011;68437;52.236;5.710;2023-05-02T03:13:45;13.10;;;2.90;;
18501;SDS011;68437;52.236;5.710;2023-05-02T03:19:01;14.52;;;3.20;;
18501;SDS011;68437;52.236;5.710;2023-05-02T03:21:31;16.98;;;2.95;;
18501;SDS011;68437;52.236;5.710;2023-05-02T03:23:58;16.05;;;2.97;;
18501;SDS011;68437;52.236;5.710;2023-05-02T03:26:25;13.52;;;3.17;;
18501;SDS011;68437;52.236;5.710;2023-05-02T03:28:52;15.75;;;3.25;;
18501;SDS011;68437;52.236;5.710;2023-05-02T03:31:19;9.15;;;2.97;;
18501;SDS011;68437;52.236;5.710;2023-05-02T03:33:47;7.88;;;2.90;;
18501;SDS011;68437;52.236;5.710;2023-05-02T03:36:13;11.38;;;2.90;;
18501;SDS011;68437;52.236;5.710;2023-05-02T03:38:42;10.85;;;2.78;;
18501;SDS011;68437;52.236;5.710;2023-05-02T03:41:08;12.27;;;2.67;;
18501;SDS011;68437;52.236;5.710;2023-05-02T03:43:35;11.18;;;2.95;;
18501;SDS011;68437;52.236;5.710;2023-05-02T03:46:03;11.32;;;3.10;;
18501;SDS011;68437;52.236;5.710;2023-05-02T03:48:32;8.45;;;3.03;;
18501;SDS011;68437;52.236;5.710;2023-05-02T03:50:58;13.75;;;2.63;;
18501;SDS011;68437;52.236;5.710;2023-05-02T03:53:26;14.52;;;2.50;;
18501;SDS011;68437;52.236;5.710;2023-05-02T03:55:55;10.45;;;2.45;;
18501;SDS011;68437;52.236;5.710;2023-05-02T03:58:22;8.88;;;2.35;;
18501;SDS011;68437;52.236;5.710;2023-05-02T04:00:49;12.05;;;2.75;;
18501;SDS011;68437;52.236;5.710;2023-05-02T04:03:17;13.00;;;2.70;;
18501;SDS011;68437;52.236;5.710;2023-05-02T04:05:44;19.00;;;2.88;;
18501;SDS011;68437;52.236;5.710;2023-05-02T04:08:11;11.02;;;2.70;;
18501;SDS011;68437;52.236;5.710;2023-05-02T04:10:38;8.70;;;2.47;;
18501;SDS011;68437;52.236;5.710;2023-05-02T04:13:06;13.90;;;2.75;;
18501;SDS011;68437;52.236;5.710;2023-05-02T04:15:33;13.35;;;2.60;;
18501;SDS011;68437;52.236;5.710;2023-05-02T04:17:59;9.35;;;2.85;;
18501;SDS011;68437;52.236;5.710;2023-05-02T04:20:26;13.50;;;2.97;;
18501;SDS011;68437;52.236;5.710;2023-05-02T04:22:53;19.02;;;3.20;;
18501;SDS011;68437;52.236;5.710;2023-05-02T04:25:20;11.18;;;2.92;;
18501;SDS011;68437;52.236;5.710;2023-05-02T04:27:47;13.20;;;3.33;;
18501;SDS011;68437;52.236;5.710;2023-05-02T04:30:15;16.25;;;3.47;;
18501;SDS011;68437;52.236;5.710;2023-05-02T04:32:42;15.38;;;3.40;;
18501;SDS011;68437;52.236;5.710;2023-05-02T04:35:09;15.23;;;3.60;;
18501;SDS011;68437;52.236;5.710;2023-05-02T04:37:36;25.48;;;4.15;;
18501;SDS011;68437;52.236;5.710;2023-05-02T04:40:03;9.40;;;3.33;;
18501;SDS011;68437;52.236;5.710;2023-05-02T04:42:30;20.10;;;4.07;;
18501;SDS011;68437;52.236;5.710;2023-05-02T04:44:57;18.05;;;4.07;;
18501;SDS011;68437;52.236;5.710;2023-05-02T04:47:25;17.23;;;4.22;;
18501;SDS011;68437;52.236;5.710;2023-05-02T04:49:52;15.35;;;4.28;;
18501;SDS011;68437;52.236;5.710;2023-05-02T04:52:19;17.08;;;3.90;;
18501;SDS011;68437;52.236;5.710;2023-05-02T04:54:46;20.73;;;4.10;;
18501;SDS011;68437;52.236;5.710;2023-05-02T04:57:13;17.58;;;4.13;;
18501;SDS011;68437;52.236;5.710;2023-05-02T04:59:40;19.05;;;4.40;;
18501;SDS011;68437;52.236;5.710;2023-05-02T05:02:06;22.60;;;4.35;;
18501;SDS011;68437;52.236;5.710;2023-05-02T05:04:37;19.83;;;4.35;;
18501;SDS011;68437;52.236;5.710;2023-05-02T05:07:04;21.80;;;4.60;;
18501;SDS011;68437;52.236;5.710;2023-05-02T05:09:31;22.50;;;5.18;;
18501;SDS011;68437;52.236;5.710;2023-05-02T05:11:58;17.10;;;4.80;;
18501;SDS011;68437;52.236;5.710;2023-05-02T05:14:25;21.00;;;4.60;;
18501;SDS011;68437;52.236;5.710;2023-05-02T05:16:52;27.13;;;4.50;;
18501;SDS011;68437;52.236;5.710;2023-05-02T05:19:19;22.92;;;4.80;;
18501;SDS011;68437;52.236;5.710;2023-05-02T05:21:47;28.63;;;5.03;;
18501;SDS011;68437;52.236;5.710;2023-05-02T05:24:14;24.27;;;4.70;;
18501;SDS011;68437;52.236;5.710;2023-05-02T05:26:41;22.92;;;5.35;;
18501;SDS011;68437;52.236;5.710;2023-05-02T05:29:08;21.00;;;4.85;;
18501;SDS011;68437;52.236;5.710;2023-05-02T05:31:34;19.27;;;4.45;;
18501;SDS011;68437;52.236;5.710;2023-05-02T05:34:01;23.90;;;5.07;;
18501;SDS011;68437;52.236;5.710;2023-05-02T05:36:28;23.55;;;4.93;;
18501;SDS011;68437;52.236;5.710;2023-05-02T05:38:57;23.55;;;5.03;;
18501;SDS011;68437;52.236;5.710;2023-05-02T05:41:24;29.48;;;5.18;;
18501;SDS011;68437;52.236;5.710;2023-05-02T05:43:51;24.33;;;4.95;;
18501;SDS011;68437;52.236;5.710;2023-05-02T05:46:18;25.80;;;4.93;;
18501;SDS011;68437;52.236;5.710;2023-05-02T05:48:45;24.55;;;5.10;;
18501;SDS011;68437;52.236;5.710;2023-05-02T05:51:12;23.55;;;5.05;;
18501;SDS011;68437;52.236;5.710;2023-05-02T05:53:39;22.48;;;5.20;;
18501;SDS011;68437;52.236;5.710;2023-05-02T05:56:10;18.73;;;4.75;;
18501;SDS011;68437;52.236;5.710;2023-05-02T05:58:38;24.35;;;5.32;;
18501;SDS011;68437;52.236;5.710;2023-05-02T06:01:06;22.35;;;4.95;;
18501;SDS011;68437;52.236;5.710;2023-05-02T06:03:33;21.95;;;4.00;;
18501;SDS011;68437;52.236;5.710;2023-05-02T06:06:00;22.63;;;4.45;;
18501;SDS011;68437;52.236;5.710;2023-05-02T06:08:27;20.23;;;3.80;;
18501;SDS011;68437;52.236;5.710;2023-05-02T06:10:54;18.38;;;3.88;;
18501;SDS011;68437;52.236;5.710;2023-05-02T06:13:22;16.17;;;4.18;;
18501;SDS011;68437;52.236;5.710;2023-05-02T06:15:48;16.27;;;4.30;;
18501;SDS011;68437;52.236;5.710;2023-05-02T06:18:16;16.63;;;3.60;;
18501;SDS011;68437;52.236;5.710;2023-05-02T06:20:42;25.77;;;4.15;;
18501;SDS011;68437;52.236;5.710;2023-05-02T06:23:09;22.38;;;3.75;;
18501;SDS011;68437;52.236;5.710;2023-05-02T06:25:36;18.55;;;3.70;;
18501;SDS011;68437;52.236;5.710;2023-05-02T06:28:03;21.23;;;3.78;;
18501;SDS011;68437;52.236;5.710;2023-05-02T06:30:32;17.20;;;4.05;;
18501;SDS011;68437;52.236;5.710;2023-05-02T06:33:02;15.45;;;3.60;;
18501;SDS011;68437;52.236;5.710;2023-05-02T06:35:29;16.80;;;3.50;;
18501;SDS011;68437;52.236;5.710;2023-05-02T06:37:56;16.90;;;3.55;;
18501;SDS011;68437;52.236;5.710;2023-05-02T06:40:23;19.50;;;4.28;;
18501;SDS011;68437;52.236;5.710;2023-05-02T06:42:50;17.55;;;3.67;;
18501;SDS011;68437;52.236;5.710;2023-05-02T06:45:17;13.65;;;3.45;;
18501;SDS011;68437;52.236;5.710;2023-05-02T06:47:45;16.25;;;3.63;;
18501;SDS011;68437;52.236;5.710;2023-05-02T06:50:12;13.00;;;4.15;;
18501;SDS011;68437;52.236;5.710;2023-05-02T06:52:39;22.17;;;3.83;;
18501;SDS011;68437;52.236;5.710;2023-05-02T06:55:08;21.13;;;3.70;;
18501;SDS011;68437;52.236;5.710;2023-05-02T06:57:35;14.15;;;3.65;;
18501;SDS011;68437;52.236;5.710;2023-05-02T07:00:02;20.70;;;3.90;;
18501;SDS011;68437;52.236;5.710;2023-05-02T07:02:29;17.83;;;3.22;;
18501;SDS011;68437;52.236;5.710;2023-05-02T07:04:58;13.43;;;3.25;;
18501;SDS011;68437;52.236;5.710;2023-05-02T07:07:28;19.98;;;3.75;;
18501;SDS011;68437;52.236;5.710;2023-05-02T07:09:55;12.07;;;3.58;;
18501;SDS011;68437;52.236;5.710;2023-05-02T07:12:22;14.18;;;3.70;;
18501;SDS011;68437;52.236;5.710;2023-05-02T07:14:49;12.63;;;3.35;;
18501;SDS011;68437;52.236;5.710;2023-05-02T07:17:15;14.25;;;3.08;;
18501;SDS011;68437;52.236;5.710;2023-05-02T07:19:42;15.48;;;3.30;;
18501;SDS011;68437;52.236;5.710;2023-05-02T07:22:11;15.57;;;2.88;;
18501;SDS011;68437;52.236;5.710;2023-05-02T07:24:39;11.27;;;2.45;;
18501;SDS011;68437;52.236;5.710;2023-05-02T07:27:08;14.02;;;2.92;;
18501;SDS011;68437;52.236;5.710;2023-05-02T07:29:36;13.00;;;2.70;;
18501;SDS011;68437;52.236;5.710;2023-05-02T07:32:03;16.33;;;3.00;;
18501;SDS011;68437;52.236;5.710;2023-05-02T07:34:31;13.75;;;2.78;;
18501;SDS011;68437;52.236;5.710;2023-05-02T07:36:57;9.73;;;2.67;;
18501;SDS011;68437;52.236;5.710;2023-05-02T07:39:25;10.18;;;2.83;;
18501;SDS011;68437;52.236;5.710;2023-05-02T07:41:52;8.45;;;2.15;;
18501;SDS011;68437;52.236;5.710;2023-05-02T07:44:20;10.45;;;2.72;;
18501;SDS011;68437;52.236;5.710;2023-05-02T07:46:47;9.27;;;2.55;;
18501;SDS011;68437;52.236;5.710;2023-05-02T07:49:14;12.90;;;2.90;;
18501;SDS011;68437;52.236;5.710;2023-05-02T07:51:40;17.25;;;2.80;;
18501;SDS011;68437;52.236;5.710;2023-05-02T07:54:15;10.43;;;2.80;;
18501;SDS011;68437;52.236;5.710;2023-05-02T07:56:44;8.95;;;3.00;;
18501;SDS011;68437;52.236;5.710;2023-05-02T07:59:13;10.25;;;3.08;;
18501;SDS011;68437;52.236;5.710;2023-05-02T08:01:40;10.73;;;2.38;;
18501;SDS011;68437;52.236;5.710;2023-05-02T08:04:08;11.77;;;2.92;;
18501;SDS011;68437;52.236;5.710;2023-05-02T08:06:35;13.93;;;2.80;;
18501;SDS011;68437;52.236;5.710;2023-05-02T08:09:02;9.85;;;2.92;;
18501;SDS011;68437;52.236;5.710;2023-05-02T08:11:29;12.27;;;2.78;;
18501;SDS011;68437;52.236;5.710;2023-05-02T08:13:57;11.90;;;2.50;;
18501;SDS011;68437;52.236;5.710;2023-05-02T08:16:24;7.43;;;2.25;;
18501;SDS011;68437;52.236;5.710;2023-05-02T08:18:51;9.30;;;2.80;;
18501;SDS011;68437;52.236;5.710;2023-05-02T08:21:18;11.77;;;2.50;;
18501;SDS011;68437;52.236;5.710;2023-05-02T08:23:45;9.18;;;2.33;;
18501;SDS011;68437;52.236;5.710;2023-05-02T08:26:11;10.38;;;2.22;;
18501;SDS011;68437;52.236;5.710;2023-05-02T08:28:39;10.45;;;2.50;;
18501;SDS011;68437;52.236;5.710;2023-05-02T08:31:07;8.68;;;2.50;;
18501;SDS011;68437;52.236;5.710;2023-05-02T08:33:34;13.82;;;2.58;;
18501;SDS011;68437;52.236;5.710;2023-05-02T08:36:08;7.50;;;2.08;;
18501;SDS011;68437;52.236;5.710;2023-05-02T08:38:36;6.75;;;2.42;;
18501;SDS011;68437;52.236;5.710;2023-05-02T08:41:04;10.30;;;2.15;;
18501;SDS011;68437;52.236;5.710;2023-05-02T08:43:35;6.43;;;1.95;;
18501;SDS011;68437;52.236;5.710;2023-05-02T08:46:04;7.85;;;2.20;;
18501;SDS011;68437;52.236;5.710;2023-05-02T08:48:34;11.45;;;2.25;;
18501;SDS011;68437;52.236;5.710;2023-05-02T08:51:02;8.07;;;1.98;;
18501;SDS011;68437;52.236;5.710;2023-05-02T08:53:29;10.18;;;2.67;;
18501;SDS011;68437;52.236;5.710;2023-05-02T08:55:59;14.48;;;2.38;;
18501;SDS011;68437;52.236;5.710;2023-05-02T08:58:26;7.10;;;2.30;;
18501;SDS011;68437;52.236;5.710;2023-05-02T09:00:53;8.95;;;2.50;;
18501;SDS011;68437;52.236;5.710;2023-05-02T09:03:22;9.82;;;2.63;;
18501;SDS011;68437;52.236;5.710;2023-05-02T09:05:58;10.38;;;2.40;;
18501;SDS011;68437;52.236;5.710;2023-05-02T09:08:29;7.70;;;2.25;;
18501;SDS011;68437;52.236;5.710;2023-05-02T09:10:56;11.43;;;2.28;;
18501;SDS011;68437;52.236;5.710;2023-05-02T09:13:30;12.13;;;2.40;;
18501;SDS011;68437;52.236;5.710;2023-05-02T09:15:58;8.32;;;2.50;;
18501;SDS011;68437;52.236;5.710;2023-05-02T09:18:27;10.38;;;2.40;;
18501;SDS011;68437;52.236;5.710;2023-05-02T09:20:58;9.45;;;2.40;;
18501;SDS011;68437;52.236;5.710;2023-05-02T09:23:32;12.43;;;2.70;;
18501;SDS011;68437;52.236;5.710;2023-05-02T09:25:59;8.93;;;2.95;;
18501;SDS011;68437;52.236;5.710;2023-05-02T09:28:39;9.65;;;2.60;;
18501;SDS011;68437;52.236;5.710;2023-05-02T09:31:08;7.78;;;2.60;;
18501;SDS011;68437;52.236;5.710;2023-05-02T09:33:38;8.95;;;2.13;;
18501;SDS011;68437;52.236;5.710;2023-05-02T09:36:07;10.23;;;2.40;;
18501;SDS011;68437;52.236;5.710;2023-05-02T09:38:35;11.60;;;2.45;;
18501;SDS011;68437;52.236;5.710;2023-05-02T09:41:01;10.60;;;2.55;;
18501;SDS011;68437;52.236;5.710;2023-05-02T09:43:29;9.77;;;2.90;;
18501;SDS011;68437;52.236;5.710;2023-05-02T09:46:00;8.90;;;2.63;;
18501;SDS011;68437;52.236;5.710;2023-05-02T09:48:28;8.00;;;2.55;;
18501;SDS011;68437;52.236;5.710;2023-05-02T09:50:56;15.88;;;2.78;;
18501;SDS011;68437;52.236;5.710;2023-05-02T09:53:25;10.40;;;3.17;;
18501;SDS011;68437;52.236;5.710;2023-05-02T09:56:02;11.30;;;3.00;;
18501;SDS011;68437;52.236;5.710;2023-05-02T09:58:29;12.88;;;2.92;;
18501;SDS011;68437;52.236;5.710;2023-05-02T10:00:56;9.18;;;3.17;;
18501;SDS011;68437;52.236;5.710;2023-05-02T10:03:24;9.48;;;3.10;;
18501;SDS011;68437;52.236;5.710;2023-05-02T10:05:52;11.85;;;2.97;;
18501;SDS011;68437;52.236;5.710;2023-05-02T10:08:20;12.40;;;2.78;;
18501;SDS011;68437;52.236;5.710;2023-05-02T10:10:53;13.80;;;3.40;;
18501;SDS011;68437;52.236;5.710;2023-05-02T10:13:22;12.70;;;3.15;;
18501;SDS011;68437;52.236;5.710;2023-05-02T10:15:56;15.20;;;3.28;;
18501;SDS011;68437;52.236;5.710;2023-05-02T10:18:28;6.68;;;2.90;;
18501;SDS011;68437;52.236;5.710;2023-05-02T10:21:07;11.63;;;3.10;;
18501;SDS011;68437;52.236;5.710;2023-05-02T10:23:35;11.27;;;3.13;;
18501;SDS011;68437;52.236;5.710;2023-05-02T10:26:09;11.85;;;3.25;;
18501;SDS011;68437;52.236;5.710;2023-05-02T10:28:37;14.40;;;3.50;;
18501;SDS011;68437;52.236;5.710;2023-05-02T10:31:04;12.32;;;3.60;;
18501;SDS011;68437;52.236;5.710;2023-05-02T10:33:34;15.07;;;3.58;;
18501;SDS011;68437;52.236;5.710;2023-05-02T10:36:03;14.90;;;3.17;;
18501;SDS011;68437;52.236;5.710;2023-05-02T10:38:33;12.00;;;3.10;;
18501;SDS011;68437;52.236;5.710;2023-05-02T10:41:05;15.48;;;3.33;;
18501;SDS011;68437;52.236;5.710;2023-05-02T10:43:37;11.25;;;3.38;;
18501;SDS011;68437;52.236;5.710;2023-05-02T10:48:58;13.63;;;3.13;;
18501;SDS011;68437;52.236;5.710;2023-05-02T10:51:26;14.70;;;3.50;;
18501;SDS011;68437;52.236;5.710;2023-05-02T10:54:04;9.27;;;3.42;;
18501;SDS011;68437;52.236;5.710;2023-05-02T10:59:34;16.65;;;3.50;;
18501;SDS011;68437;52.236;5.710;2023-05-02T11:02:02;12.07;;;3.50;;
18501;SDS011;68437;52.236;5.710;2023-05-02T11:07:25;10.07;;;3.50;;
18501;SDS011;68437;52.236;5.710;2023-05-02T11:09:52;14.73;;;3.58;;
18501;SDS011;68437;52.236;5.710;2023-05-02T11:12:44;14.40;;;3.70;;
18501;SDS011;68437;52.236;5.710;2023-05-02T11:15:12;9.68;;;3.38;;
18501;SDS011;68437;52.236;5.710;2023-05-02T11:17:58;11.98;;;4.20;;
18501;SDS011;68437;52.236;5.710;2023-05-02T11:20:26;15.63;;;4.03;;
18501;SDS011;68437;52.236;5.710;2023-05-02T11:22:54;10.52;;;3.55;;
18501;SDS011;68437;52.236;5.710;2023-05-02T11:25:31;14.90;;;4.60;;
18501;SDS011;68437;52.236;5.710;2023-05-02T11:28:04;11.02;;;3.55;;
18501;SDS011;68437;52.236;5.710;2023-05-02T11:33:17;15.32;;;4.40;;
18501;SDS011;68437;52.236;5.710;2023-05-02T11:35:45;13.07;;;4.00;;
18501;SDS011;68437;52.236;5.710;2023-05-02T11:38:17;12.63;;;4.05;;
18501;SDS011;68437;52.236;5.710;2023-05-02T11:40:49;9.18;;;3.35;;
18501;SDS011;68437;52.236;5.710;2023-05-02T11:43:18;13.20;;;3.80;;
18501;SDS011;68437;52.236;5.710;2023-05-02T11:45:49;18.42;;;4.13;;
18501;SDS011;68437;52.236;5.710;2023-05-02T11:48:16;12.45;;;3.60;;
18501;SDS011;68437;52.236;5.710;2023-05-02T11:50:45;13.80;;;3.72;;
18501;SDS011;68437;52.236;5.710;2023-05-02T11:53:13;14.15;;;3.67;;
18501;SDS011;68437;52.236;5.710;2023-05-02T11:55:45;13.98;;;4.32;;
18501;SDS011;68437;52.236;5.710;2023-05-02T11:58:14;13.60;;;3.88;;
18501;SDS011;68437;52.236;5.710;2023-05-02T12:00:44;11.55;;;3.10;;
18501;SDS011;68437;52.236;5.710;2023-05-02T12:06:07;13.80;;;4.18;;
18501;SDS011;68437;52.236;5.710;2023-05-02T12:08:34;13.05;;;3.63;;
18501;SDS011;68437;52.236;5.710;2023-05-02T12:11:02;11.65;;;4.20;;
18501;SDS011;68437;52.236;5.710;2023-05-02T12:13:28;13.88;;;3.88;;
18501;SDS011;68437;52.236;5.710;2023-05-02T12:15:57;16.48;;;4.22;;
18501;SDS011;68437;52.236;5.710;2023-05-02T12:18:24;16.77;;;4.20;;
18501;SDS011;68437;52.236;5.710;2023-05-02T12:20:52;17.65;;;4.03;;
18501;SDS011;68437;52.236;5.710;2023-05-02T12:23:22;16.50;;;3.83;;
18501;SDS011;68437;52.236;5.710;2023-05-02T12:25:51;11.95;;;3.97;;
18501;SDS011;68437;52.236;5.710;2023-05-02T12:28:18;11.63;;;4.00;;
18501;SDS011;68437;52.236;5.710;2023-05-02T12:30:48;11.98;;;3.85;;
18501;SDS011;68437;52.236;5.710;2023-05-02T12:33:17;12.95;;;3.80;;
18501;SDS011;68437;52.236;5.710;2023-05-02T12:35:44;14.95;;;4.10;;
18501;SDS011;68437;52.236;5.710;2023-05-02T12:38:13;13.70;;;3.60;;
18501;SDS011;68437;52.236;5.710;2023-05-02T12:40:47;9.68;;;3.78;;
18501;SDS011;68437;52.236;5.710;2023-05-02T12:43:15;10.70;;;3.63;;
18501;SDS011;68437;52.236;5.710;2023-05-02T12:45:45;13.40;;;3.75;;
18501;SDS011;68437;52.236;5.710;2023-05-02T12:48:18;11.57;;;3.78;;
18501;SDS011;68437;52.236;5.710;2023-05-02T12:50:46;17.05;;;3.88;;
18501;SDS011;68437;52.236;5.710;2023-05-02T12:53:13;16.35;;;3.75;;
18501;SDS011;68437;52.236;5.710;2023-05-02T12:55:40;10.48;;;3.72;;
18501;SDS011;68437;52.236;5.710;2023-05-02T12:58:07;9.90;;;4.00;;
18501;SDS011;68437;52.236;5.710;2023-05-02T13:00:37;17.20;;;4.07;;
18501;SDS011;68437;52.236;5.710;2023-05-02T13:03:05;10.40;;;3.92;;
18501;SDS011;68437;52.236;5.710;2023-05-02T13:05:33;15.02;;;3.83;;
18501;SDS011;68437;52.236;5.710;2023-05-02T13:08:00;17.48;;;3.40;;
18501;SDS011;68437;52.236;5.710;2023-05-02T13:10:28;12.77;;;3.65;;
18501;SDS011;68437;52.236;5.710;2023-05-02T13:12:55;10.57;;;3.28;;
18501;SDS011;68437;52.236;5.710;2023-05-02T13:15:22;13.27;;;3.42;;
18501;SDS011;68437;52.236;5.710;2023-05-02T13:17:49;14.00;;;3.97;;
18501;SDS011;68437;52.236;5.710;2023-05-02T13:20:20;10.50;;;3.15;;
18501;SDS011;68437;52.236;5.710;2023-05-02T13:22:49;9.20;;;3.47;;
18501;SDS011;68437;52.236;5.710;2023-05-02T13:25:15;10.32;;;2.92;;
18501;SDS011;68437;52.236;5.710;2023-05-02T13:27:42;17.55;;;3.78;;
18501;SDS011;68437;52.236;5.710;2023-05-02T13:30:10;11.68;;;3.50;;
18501;SDS011;68437;52.236;5.710;2023-05-02T13:32:37;8.48;;;3.17;;
18501;SDS011;68437;52.236;5.710;2023-05-02T13:35:05;10.40;;;3.67;;
18501;SDS011;68437;52.236;5.710;2023-05-02T13:37:33;9.80;;;3.60;;
18501;SDS011;68437;52.236;5.710;2023-05-02T13:40:01;11.60;;;3.63;;
18501;SDS011;68437;52.236;5.710;2023-05-02T13:42:28;10.65;;;3.50;;
18501;SDS011;68437;52.236;5.710;2023-05-02T13:44:55;12.15;;;3.42;;
18501;SDS011;68437;52.236;5.710;2023-05-02T13:47:27;12.55;;;3.38;;
18501;SDS011;68437;52.236;5.710;2023-05-02T13:49:53;9.57;;;3.65;;
18501;SDS011;68437;52.236;5.710;2023-05-02T13:52:20;12.27;;;3.90;;
18501;SDS011;68437;52.236;5.710;2023-05-02T13:54:47;11.38;;;3.20;;
18501;SDS011;68437;52.236;5.710;2023-05-02T13:57:15;9.75;;;3.70;;
18501;SDS011;68437;52.236;5.710;2023-05-02T13:59:42;9.48;;;3.75;;
18501;SDS011;68437;52.236;5.710;2023-05-02T14:02:09;10.57;;;3.60;;
18501;SDS011;68437;52.236;5.710;2023-05-02T14:04:35;11.95;;;3.70;;
18501;SDS011;68437;52.236;5.710;2023-05-02T14:07:02;14.88;;;3.70;;
18501;SDS011;68437;52.236;5.710;2023-05-02T14:09:29;11.10;;;3.60;;
18501;SDS011;68437;52.236;5.710;2023-05-02T14:11:56;12.38;;;3.80;;
18501;SDS011;68437;52.236;5.710;2023-05-02T14:14:25;12.88;;;3.90;;
18501;SDS011;68437;52.236;5.710;2023-05-02T14:16:51;8.75;;;3.60;;
18501;SDS011;68437;52.236;5.710;2023-05-02T14:19:18;9.15;;;3.28;;
18501;SDS011;68437;52.236;5.710;2023-05-02T14:21:45;7.00;;;3.15;;
18501;SDS011;68437;52.236;5.710;2023-05-02T14:24:12;7.22;;;2.85;;
18501;SDS011;68437;52.236;5.710;2023-05-02T14:26:42;12.18;;;3.75;;
18501;SDS011;68437;52.236;5.710;2023-05-02T14:29:09;9.88;;;3.35;;
18501;SDS011;68437;52.236;5.710;2023-05-02T14:31:37;12.20;;;3.28;;
18501;SDS011;68437;52.236;5.710;2023-05-02T14:34:04;8.07;;;3.05;;
18501;SDS011;68437;52.236;5.710;2023-05-02T14:36:30;11.90;;;3.25;;
18501;SDS011;68437;52.236;5.710;2023-05-02T14:38:57;11.32;;;3.17;;
18501;SDS011;68437;52.236;5.710;2023-05-02T14:41:24;10.88;;;3.15;;
18501;SDS011;68437;52.236;5.710;2023-05-02T14:43:51;8.07;;;3.35;;
18501;SDS011;68437;52.236;5.710;2023-05-02T14:46:18;7.78;;;2.92;;
18501;SDS011;68437;52.236;5.710;2023-05-02T14:48:46;11.23;;;3.33;;
18501;SDS011;68437;52.236;5.710;2023-05-02T14:51:13;6.53;;;2.85;;
18501;SDS011;68437;52.236;5.710;2023-05-02T14:53:40;4.47;;;2.72;;
18501;SDS011;68437;52.236;5.710;2023-05-02T14:56:10;10.65;;;2.78;;
18501;SDS011;68437;52.236;5.710;2023-05-02T14:58:42;7.32;;;2.90;;
18501;SDS011;68437;52.236;5.710;2023-05-02T15:01:14;8.65;;;3.10;;
18501;SDS011;68437;52.236;5.710;2023-05-02T15:03:41;10.38;;;3.03;;